TimeMST,TemperatureF,Dew PointF,Humidity,Sea Level PressureIn,VisibilityMPH,Wind Direction,Wind SpeedMPH,Gust SpeedMPH,PrecipitationIn,Events,Conditions,WindDirDegrees,DateUTC
12:53 AM,27.0,3.9,37,29.60,10.0,West,19.6,24.2,N/A,,Clear,260,2012-12-18 07:53:00
1:53 AM,26.1,3.9,39,29.62,10.0,WSW,16.1,25.3,N/A,,Clear,250,2012-12-18 08:53:00
2:53 AM,23.0,5.0,46,29.65,10.0,WNW,10.4,-,N/A,,Clear,300,2012-12-18 09:53:00
3:53 AM,25.0,6.1,45,29.67,10.0,WNW,16.1,25.3,N/A,,Clear,290,2012-12-18 10:53:00
4:53 AM,16.0,1.9,54,29.74,10.0,WNW,11.5,-,N/A,,Clear,290,2012-12-18 11:53:00
5:53 AM,15.1,1.9,56,29.75,10.0,West,8.1,-,N/A,,Clear,280,2012-12-18 12:53:00
6:53 AM,23.0,3.9,44,29.75,10.0,WSW,17.3,-,N/A,,Clear,250,2012-12-18 13:53:00
7:53 AM,21.9,1.9,42,29.73,10.0,WSW,17.3,-,N/A,,Clear,240,2012-12-18 14:53:00
8:53 AM,24.1,-0.0,35,29.75,10.0,WSW,15.0,-,N/A,,Clear,250,2012-12-18 15:53:00
9:53 AM,28.0,-4.0,25,29.75,10.0,West,16.1,-,N/A,,Clear,260,2012-12-18 16:53:00
10:53 AM,30.0,-7.1,20,29.74,10.0,West,25.3,34.5,N/A,,Clear,260,2012-12-18 17:53:00
11:53 AM,30.0,-5.1,22,29.75,10.0,West,24.2,31.1,N/A,,Clear,270,2012-12-18 18:53:00
12:53 PM,30.0,-4.0,23,29.73,10.0,NW,18.4,24.2,N/A,,Partly Cloudy,310,2012-12-18 19:53:00
1:53 PM,30.0,-4.0,23,29.74,10.0,WNW,17.3,21.9,N/A,,Partly Cloudy,300,2012-12-18 20:53:00
2:53 PM,30.0,-7.1,20,29.75,10.0,WNW,15.0,-,N/A,,Scattered Clouds,290,2012-12-18 21:53:00
3:53 PM,28.0,-6.0,23,29.74,10.0,WNW,8.1,-,N/A,,Mostly Cloudy,290,2012-12-18 22:53:00
4:53 PM,24.1,-7.1,25,29.82,10.0,West,4.6,-,N/A,,Mostly Cloudy,260,2012-12-18 23:53:00
5:53 PM,24.1,-8.0,24,29.82,10.0,WNW,11.5,-,N/A,,Mostly Cloudy,300,2012-12-19 00:53:00
6:53 PM,23.0,-8.0,25,29.82,10.0,WNW,8.1,-,N/A,,Mostly Cloudy,300,2012-12-19 01:53:00
7:53 PM,21.0,-6.0,30,29.84,10.0,WNW,4.6,-,N/A,,Overcast,290,2012-12-19 02:53:00
8:53 PM,17.1,-5.1,37,29.85,10.0,NW,8.1,-,N/A,,Mostly Cloudy,320,2012-12-19 03:53:00
9:53 PM,18.0,-2.9,40,29.86,10.0,Calm,Calm,-,N/A,,Overcast,0,2012-12-19 04:53:00
10:53 PM,18.0,-2.9,40,29.85,10.0,Calm,Calm,-,N/A,,Overcast,0,2012-12-19 05:53:00
11:53 PM,16.0,-0.9,47,29.87,10.0,WNW,3.5,-,N/A,,Mostly Cloudy,290,2012-12-19 06:53:00